createdAt,value
2022-09-30T00:00:27.183Z,10.80
2022-09-30T00:03:13.033Z,6.05
2022-09-30T00:06:08.416Z,5.65
2022-09-30T00:08:55.100Z,5.53
2022-09-30T00:11:41.763Z,7.45
2022-09-30T00:14:27.257Z,6.95
2022-09-30T00:17:13.062Z,7.53
2022-09-30T00:19:58.388Z,6.40
2022-09-30T00:22:44.979Z,4.97
2022-09-30T00:25:30.234Z,5.57
2022-09-30T00:28:16.582Z,6.28
2022-09-30T00:31:05.391Z,6.05
2022-09-30T00:34:07.140Z,8.15
2022-09-30T00:36:55.777Z,6.28
2022-09-30T00:39:41.462Z,5.97
2022-09-30T00:42:29.567Z,6.72
2022-09-30T00:45:18.059Z,6.90
2022-09-30T00:48:30.915Z,9.02
2022-09-30T00:51:16.564Z,7.85
2022-09-30T00:54:06.993Z,7.97
2022-09-30T00:56:56.844Z,6.00
2022-09-30T00:59:45.370Z,5.65
2022-09-30T01:02:30.815Z,6.35
2022-09-30T01:05:16.368Z,7.68
2022-09-30T01:08:04.550Z,7.72
2022-09-30T01:10:50.415Z,13.02
2022-09-30T01:13:39.271Z,9.95
2022-09-30T01:16:44.218Z,14.30
2022-09-30T01:19:59.128Z,11.27
2022-09-30T01:23:11.729Z,13.53
2022-09-30T01:26:09.229Z,11.80
2022-09-30T01:29:28.745Z,9.02
2022-09-30T01:32:32.731Z,7.35
2022-09-30T01:35:37.256Z,5.95
2022-09-30T01:38:34.376Z,6.28
2022-09-30T01:41:32.442Z,5.80
2022-09-30T01:44:32.036Z,6.97
2022-09-30T01:47:30.050Z,5.95
2022-09-30T01:50:15.919Z,7.63
2022-09-30T01:53:17.518Z,8.23
2022-09-30T01:56:12.418Z,7.10
2022-09-30T01:59:06.633Z,7.25
2022-09-30T02:02:24.663Z,8.07
2022-09-30T02:05:19.610Z,5.90
2022-09-30T02:08:12.966Z,7.57
2022-09-30T02:11:04.176Z,7.25
2022-09-30T02:14:05.961Z,8.60
2022-09-30T02:17:09.820Z,7.70
2022-09-30T02:20:10.331Z,8.23
2022-09-30T02:23:11.193Z,7.00
2022-09-30T02:26:10.332Z,9.60
2022-09-30T02:29:05.780Z,8.88
2022-09-30T02:34:42.375Z,7.32
2022-09-30T02:37:36.732Z,12.63
2022-09-30T02:40:42.087Z,7.97
2022-09-30T02:43:27.577Z,8.70
2022-09-30T02:46:33.963Z,12.05
2022-09-30T02:49:38.181Z,15.35
2022-09-30T02:52:48.642Z,13.40
2022-09-30T02:55:44.142Z,11.85
2022-09-30T02:58:30.367Z,10.50
2022-09-30T03:01:17.235Z,14.77
2022-09-30T03:04:09.740Z,11.75
2022-09-30T03:06:55.865Z,9.25
2022-09-30T03:09:41.506Z,12.00
2022-09-30T03:13:03.842Z,12.35
2022-09-30T03:16:02.349Z,10.98
2022-09-30T03:18:59.547Z,11.38
2022-09-30T03:22:10.927Z,14.05
2022-09-30T03:25:07.220Z,13.65
2022-09-30T03:28:00.236Z,10.88
2022-09-30T03:31:06.027Z,15.07
2022-09-30T03:37:10.375Z,12.57
2022-09-30T03:40:17.682Z,21.33
2022-09-30T03:43:18.474Z,8.77
2022-09-30T03:46:10.609Z,14.98
2022-09-30T03:49:01.263Z,13.68
2022-09-30T03:51:46.673Z,13.45
2022-09-30T03:54:32.999Z,12.48
2022-09-30T03:57:18.609Z,9.63
2022-09-30T04:00:05.710Z,11.80
2022-09-30T04:02:55.803Z,12.80
2022-09-30T04:05:43.640Z,11.98
2022-09-30T04:08:33.635Z,9.70
2022-09-30T04:11:19.731Z,9.27
2022-09-30T04:14:05.970Z,8.90
2022-09-30T04:16:53.898Z,8.65
2022-09-30T04:19:40.451Z,7.38
2022-09-30T04:22:26.648Z,9.77
2022-09-30T04:25:12.913Z,10.52
2022-09-30T04:27:58.642Z,8.05
2022-09-30T04:30:44.039Z,15.23
2022-09-30T04:33:29.788Z,11.70
2022-09-30T04:36:15.592Z,7.85
2022-09-30T04:39:01.404Z,7.60
2022-09-30T04:41:46.476Z,7.85
2022-09-30T04:44:32.184Z,10.57
2022-09-30T04:47:17.821Z,8.10
2022-09-30T04:50:03.989Z,10.65
2022-09-30T04:52:49.583Z,7.85
2022-09-30T04:55:35.550Z,6.40
2022-09-30T04:58:21.023Z,17.77
2022-09-30T05:01:08.885Z,10.20
2022-09-30T05:03:54.796Z,9.52
2022-09-30T05:06:42.683Z,10.30
2022-09-30T05:09:27.948Z,9.68
2022-09-30T05:12:14.571Z,8.98
2022-09-30T05:15:00.504Z,9.80
2022-09-30T05:17:49.609Z,23.83
2022-09-30T05:20:35.722Z,10.15
2022-09-30T05:23:21.635Z,11.10
2022-09-30T05:26:11.722Z,11.75
2022-09-30T05:28:58.176Z,11.43
2022-09-30T05:31:43.425Z,11.05
2022-09-30T05:34:29.568Z,10.45
2022-09-30T05:37:15.575Z,10.05
2022-09-30T05:40:01.356Z,15.02
2022-09-30T05:42:47.569Z,13.48
2022-09-30T05:45:33.892Z,10.80
2022-09-30T05:48:20.217Z,9.30
2022-09-30T05:51:05.902Z,13.50
2022-09-30T05:53:51.881Z,19.65
2022-09-30T05:56:38.462Z,17.70
2022-09-30T05:59:24.407Z,12.55
2022-09-30T06:02:11.121Z,10.15
2022-09-30T06:04:56.696Z,17.65
2022-09-30T06:07:42.351Z,10.18
2022-09-30T06:10:28.392Z,35.05
2022-09-30T06:13:14.040Z,12.02
2022-09-30T06:16:01.713Z,17.63
2022-09-30T06:18:47.356Z,10.07
2022-09-30T06:21:33.218Z,15.70
2022-09-30T06:24:19.120Z,9.40
2022-09-30T06:27:04.603Z,9.55
2022-09-30T06:29:50.250Z,11.13
2022-09-30T06:32:35.850Z,23.17
2022-09-30T06:35:24.075Z,41.78
2022-09-30T06:38:10.384Z,7.30
2022-09-30T06:40:56.740Z,19.38
2022-09-30T06:43:45.842Z,19.77
2022-09-30T06:46:40.195Z,43.55
2022-09-30T06:49:42.694Z,16.85
2022-09-30T06:52:31.126Z,11.93
2022-09-30T06:55:16.960Z,26.83
2022-09-30T06:58:02.598Z,49.85
2022-09-30T07:01:01.642Z,14.30
2022-09-30T07:03:50.329Z,31.77
2022-09-30T07:06:39.000Z,14.93
2022-09-30T07:09:25.762Z,16.05
2022-09-30T07:12:11.210Z,12.48
2022-09-30T07:14:57.228Z,15.73
2022-09-30T07:17:44.038Z,9.50
2022-09-30T07:20:29.194Z,12.90
2022-09-30T07:23:14.521Z,18.27
2022-09-30T07:26:03.375Z,23.30
2022-09-30T07:28:49.977Z,19.02
2022-09-30T07:31:36.000Z,13.13
2022-09-30T07:34:22.164Z,12.13
2022-09-30T07:37:07.613Z,19.25
2022-09-30T07:39:53.405Z,13.27
2022-09-30T07:42:46.356Z,12.55
2022-09-30T07:45:31.551Z,14.43
2022-09-30T07:48:35.567Z,15.10
2022-09-30T07:51:23.129Z,11.05
2022-09-30T07:54:13.632Z,11.80
2022-09-30T07:57:15.672Z,12.50
2022-09-30T08:00:12.033Z,14.70
2022-09-30T08:03:02.698Z,15.40
2022-09-30T08:05:48.636Z,14.27
2022-09-30T08:08:34.463Z,13.02
2022-09-30T08:11:20.471Z,13.48
2022-09-30T08:14:05.868Z,18.65
2022-09-30T08:16:52.228Z,16.90
2022-09-30T08:19:38.181Z,13.75
2022-09-30T08:22:23.977Z,13.85
2022-09-30T08:25:09.449Z,15.70
2022-09-30T08:27:55.002Z,17.88
2022-09-30T08:30:41.161Z,31.75
2022-09-30T08:33:26.366Z,25.27
2022-09-30T08:36:20.382Z,19.13
2022-09-30T08:39:06.246Z,19.02
2022-09-30T08:42:36.537Z,20.92
2022-09-30T08:45:52.587Z,12.27
2022-09-30T08:49:07.434Z,21.47
2022-09-30T08:51:54.306Z,13.50
2022-09-30T08:54:44.328Z,11.90
2022-09-30T08:57:37.052Z,14.63
2022-09-30T09:00:23.005Z,10.68
2022-09-30T09:03:13.126Z,9.63
2022-09-30T09:06:08.871Z,9.65
2022-09-30T09:08:56.972Z,10.48
2022-09-30T09:12:22.272Z,12.80
2022-09-30T09:15:26.635Z,10.20
2022-09-30T09:18:29.417Z,9.60
2022-09-30T09:21:31.357Z,12.25
2022-09-30T09:24:30.545Z,9.77
2022-09-30T09:27:34.083Z,12.20
2022-09-30T09:30:24.579Z,10.35
2022-09-30T09:33:22.001Z,9.63
2022-09-30T09:36:39.055Z,9.45
2022-09-30T09:39:37.616Z,9.38
2022-09-30T09:42:42.190Z,11.18
2022-09-30T09:45:43.341Z,10.75
2022-09-30T09:48:30.747Z,10.63
2022-09-30T09:51:33.384Z,8.60
2022-09-30T09:54:21.560Z,8.48
2022-09-30T09:57:12.768Z,7.43
2022-09-30T10:00:29.209Z,7.57
2022-09-30T10:03:24.362Z,7.70
2022-09-30T10:06:12.876Z,7.70
2022-09-30T10:08:58.092Z,6.35
2022-09-30T10:11:43.528Z,7.13
2022-09-30T10:14:29.300Z,7.07
2022-09-30T10:17:26.254Z,7.10
2022-09-30T10:20:32.996Z,6.85
2022-09-30T10:23:33.542Z,8.00
2022-09-30T10:26:25.273Z,8.93
2022-09-30T10:29:28.498Z,7.88
2022-09-30T10:32:14.072Z,9.18
2022-09-30T10:35:16.955Z,6.60
2022-09-30T10:38:02.652Z,8.10
2022-09-30T10:40:51.170Z,6.75
2022-09-30T10:43:51.400Z,8.88
2022-09-30T10:46:39.906Z,6.47
2022-09-30T10:49:33.150Z,6.68
2022-09-30T10:52:24.885Z,5.78
2022-09-30T10:55:30.814Z,6.95
2022-09-30T10:58:39.948Z,6.40
2022-09-30T11:01:39.326Z,6.55
2022-09-30T11:04:35.495Z,5.38
2022-09-30T11:07:44.463Z,5.65
2022-09-30T11:11:10.463Z,7.65
2022-09-30T11:14:13.546Z,4.55
2022-09-30T11:17:20.486Z,4.90
2022-09-30T11:20:31.169Z,6.40
2022-09-30T11:23:40.742Z,4.65
2022-09-30T11:26:30.076Z,3.60
2022-09-30T11:29:24.708Z,3.75
2022-09-30T11:32:34.456Z,4.10
2022-09-30T11:35:57.448Z,3.70
2022-09-30T11:39:43.964Z,5.32
2022-09-30T11:45:48.331Z,4.20
2022-09-30T11:49:11.023Z,6.15
2022-09-30T11:52:06.397Z,3.58
2022-09-30T11:55:06.290Z,2.75
2022-09-30T11:57:58.008Z,3.47
2022-09-30T12:00:49.186Z,3.70
2022-09-30T12:03:40.317Z,3.30
2022-09-30T12:06:43.893Z,4.10
2022-09-30T12:09:37.257Z,4.22
2022-09-30T12:12:22.814Z,3.33
2022-09-30T12:15:15.471Z,4.10
2022-09-30T12:18:10.927Z,5.38
2022-09-30T12:21:20.780Z,4.10
2022-09-30T12:24:16.741Z,4.00
2022-09-30T12:27:03.516Z,2.63
2022-09-30T12:30:15.269Z,2.90
2022-09-30T12:33:43.359Z,3.78
2022-09-30T12:36:53.714Z,3.25
2022-09-30T12:40:18.987Z,2.90
2022-09-30T12:43:10.345Z,7.82
2022-09-30T12:46:17.073Z,4.55
2022-09-30T12:49:09.818Z,2.67
2022-09-30T12:52:05.362Z,5.32
2022-09-30T12:54:58.988Z,3.80
2022-09-30T12:57:44.285Z,3.22
2022-09-30T13:00:34.609Z,4.80
2022-09-30T13:03:20.950Z,2.42
2022-09-30T13:06:06.856Z,3.08
2022-09-30T13:09:17.811Z,3.72
2022-09-30T13:12:02.959Z,2.25
2022-09-30T13:14:48.275Z,2.15
2022-09-30T13:17:36.210Z,3.53
2022-09-30T13:20:51.102Z,3.20
2022-09-30T13:23:44.835Z,2.30
2022-09-30T13:26:44.756Z,4.05
2022-09-30T13:29:35.310Z,3.03
2022-09-30T13:32:37.764Z,3.05
2022-09-30T13:35:44.445Z,2.33
2022-09-30T13:38:40.428Z,3.63
2022-09-30T13:41:26.877Z,3.03
2022-09-30T13:44:20.547Z,5.50
2022-09-30T13:47:27.578Z,4.22
2022-09-30T13:50:20.533Z,3.22
2022-09-30T13:53:12.650Z,3.58
2022-09-30T13:56:01.736Z,3.88
2022-09-30T13:58:59.761Z,3.38
2022-09-30T14:02:03.876Z,3.60
2022-09-30T14:05:15.947Z,3.13
2022-09-30T14:08:19.335Z,3.25
2022-09-30T14:11:13.396Z,2.83
2022-09-30T14:14:12.028Z,4.20
2022-09-30T14:17:19.272Z,3.83
2022-09-30T14:20:30.635Z,2.55
2022-09-30T14:23:18.773Z,3.58
2022-09-30T14:26:52.978Z,5.95
2022-09-30T14:30:03.108Z,4.15
2022-09-30T14:32:56.828Z,3.42
2022-09-30T14:35:43.296Z,2.80
2022-09-30T14:38:32.043Z,2.28
2022-09-30T14:41:22.707Z,3.20
2022-09-30T14:44:17.176Z,3.47
2022-09-30T14:47:04.508Z,2.17
2022-09-30T14:49:50.264Z,3.20
2022-09-30T14:52:41.681Z,2.20
2022-09-30T14:55:30.906Z,3.25
2022-09-30T14:58:30.450Z,5.15
2022-09-30T15:01:17.786Z,3.40
2022-09-30T15:04:11.281Z,2.30
2022-09-30T15:06:59.827Z,5.72
2022-09-30T15:09:47.614Z,4.88
2022-09-30T15:12:39.108Z,5.50
2022-09-30T15:15:37.996Z,2.83
2022-09-30T15:18:32.990Z,2.22
2022-09-30T15:21:18.631Z,3.13
2022-09-30T15:24:04.321Z,2.90
2022-09-30T15:26:52.208Z,3.13
2022-09-30T15:29:37.994Z,1.85
2022-09-30T15:32:26.183Z,2.35
2022-09-30T15:35:17.054Z,2.63
2022-09-30T15:38:16.335Z,3.25
2022-09-30T15:41:06.286Z,2.47
2022-09-30T15:44:53.434Z,3.13
2022-09-30T15:47:55.562Z,2.85
2022-09-30T15:50:49.992Z,2.17
2022-09-30T15:53:38.247Z,3.22
2022-09-30T15:56:31.119Z,3.45
2022-09-30T15:59:17.016Z,3.58
2022-09-30T16:02:02.757Z,3.65
2022-09-30T16:04:51.992Z,2.72
2022-09-30T16:07:37.407Z,4.68
2022-09-30T16:10:23.153Z,3.65
2022-09-30T16:13:14.652Z,3.35
2022-09-30T16:16:02.120Z,4.68
2022-09-30T16:18:49.134Z,4.25
2022-09-30T16:21:44.806Z,3.22
2022-09-30T16:24:30.165Z,4.13
2022-09-30T16:27:23.319Z,3.05
2022-09-30T16:30:14.648Z,3.50
2022-09-30T16:33:05.043Z,4.22
2022-09-30T16:35:50.761Z,5.47
2022-09-30T16:38:36.624Z,3.75
2022-09-30T16:41:22.944Z,7.28
2022-09-30T16:44:09.277Z,4.38
2022-09-30T16:46:54.493Z,3.45
2022-09-30T16:49:42.698Z,3.55
2022-09-30T16:52:28.345Z,4.20
2022-09-30T16:57:59.798Z,4.18
2022-09-30T17:00:45.557Z,4.85
2022-09-30T17:03:31.296Z,6.63
2022-09-30T17:06:19.390Z,6.18
2022-09-30T17:09:05.349Z,5.18
2022-09-30T17:11:53.283Z,5.10
2022-09-30T17:14:42.076Z,5.82
2022-09-30T17:17:27.494Z,4.10
2022-09-30T17:20:13.131Z,5.32
2022-09-30T17:22:58.559Z,5.35
2022-09-30T17:25:44.004Z,5.13
2022-09-30T17:28:29.422Z,6.85
2022-09-30T17:31:15.324Z,5.53
2022-09-30T17:34:05.382Z,5.78
2022-09-30T17:36:51.369Z,7.30
2022-09-30T17:39:37.027Z,16.77
2022-09-30T17:42:40.840Z,14.13
2022-09-30T17:45:28.042Z,17.20
2022-09-30T17:48:16.144Z,13.05
2022-09-30T17:51:01.761Z,7.55
2022-09-30T17:53:48.260Z,12.00
2022-09-30T17:56:34.825Z,7.45
2022-09-30T17:59:21.857Z,6.90
2022-09-30T18:02:07.486Z,8.10
2022-09-30T18:04:54.436Z,4.57
2022-09-30T18:07:40.137Z,4.65
2022-09-30T18:10:26.927Z,4.72
2022-09-30T18:13:12.794Z,5.30
2022-09-30T18:16:01.932Z,3.78
2022-09-30T18:18:47.669Z,3.15
2022-09-30T18:21:36.179Z,4.78
2022-09-30T18:24:41.862Z,4.90
2022-09-30T18:27:28.241Z,7.25
2022-09-30T18:30:13.727Z,7.35
2022-09-30T18:32:59.414Z,4.90
2022-09-30T18:35:44.980Z,6.22
2022-09-30T18:38:30.657Z,6.10
2022-09-30T18:41:16.142Z,5.28
2022-09-30T18:44:02.946Z,5.43
2022-09-30T18:46:48.838Z,7.82
2022-09-30T18:49:34.563Z,10.52
2022-09-30T18:52:19.944Z,7.65
2022-09-30T18:55:06.428Z,5.95
2022-09-30T18:57:56.086Z,5.75
2022-09-30T19:00:41.917Z,7.32
2022-09-30T19:03:31.680Z,6.38
2022-09-30T19:06:17.349Z,6.43
2022-09-30T19:09:03.437Z,5.70
2022-09-30T19:11:51.449Z,5.00
2022-09-30T19:14:36.792Z,5.50
2022-09-30T19:17:22.309Z,6.07
2022-09-30T19:20:08.460Z,7.68
2022-09-30T19:22:53.775Z,5.25
2022-09-30T19:25:39.569Z,5.80
2022-09-30T19:28:24.774Z,5.88
2022-09-30T19:31:15.349Z,7.97
2022-09-30T19:34:02.054Z,6.15
2022-09-30T19:36:51.915Z,6.15
2022-09-30T19:39:45.495Z,5.55
2022-09-30T19:42:32.394Z,6.03
2022-09-30T19:45:24.344Z,6.40
2022-09-30T19:48:10.232Z,5.57
2022-09-30T19:51:04.393Z,5.22
2022-09-30T19:54:02.976Z,5.07
2022-09-30T19:56:51.251Z,5.45
2022-09-30T19:59:36.905Z,6.72
2022-09-30T20:02:23.162Z,12.60
2022-09-30T20:05:09.291Z,11.02
2022-09-30T20:07:54.846Z,7.43
2022-09-30T20:10:40.787Z,8.02
2022-09-30T20:13:26.559Z,7.68
2022-09-30T20:16:14.343Z,8.57
2022-09-30T20:18:59.799Z,8.07
2022-09-30T20:21:46.697Z,7.68
2022-09-30T20:24:32.424Z,8.88
2022-09-30T20:27:17.845Z,9.10
2022-09-30T20:30:03.465Z,6.88
2022-09-30T20:32:48.997Z,9.27
2022-09-30T20:35:36.753Z,6.53
2022-09-30T20:38:24.867Z,7.80
2022-09-30T20:41:10.843Z,9.45
2022-09-30T20:43:56.407Z,7.70
2022-09-30T20:46:41.984Z,7.05
2022-09-30T20:49:28.632Z,9.73
2022-09-30T20:52:14.667Z,10.25
2022-09-30T20:55:00.727Z,9.63
2022-09-30T20:57:46.243Z,10.38
2022-09-30T21:00:33.743Z,11.15
2022-09-30T21:03:19.175Z,9.30
2022-09-30T21:06:13.083Z,7.68
2022-09-30T21:09:00.764Z,8.63
2022-09-30T21:11:46.108Z,7.20
2022-09-30T21:14:31.964Z,6.68
2022-09-30T21:17:17.371Z,5.88
2022-09-30T21:20:02.797Z,6.22
2022-09-30T21:22:48.186Z,8.45
2022-09-30T21:25:33.811Z,6.32
2022-09-30T21:28:19.282Z,7.72
2022-09-30T21:31:14.847Z,8.90
2022-09-30T21:34:01.470Z,10.32
2022-09-30T21:36:49.241Z,7.68
2022-09-30T21:39:34.474Z,6.30
2022-09-30T21:42:20.312Z,10.00
2022-09-30T21:45:06.156Z,8.25
2022-09-30T21:47:51.633Z,7.65
2022-09-30T21:50:37.741Z,9.10
2022-09-30T21:53:27.257Z,8.50
2022-09-30T21:56:12.496Z,7.35
2022-09-30T21:58:58.248Z,7.85
2022-09-30T22:01:43.770Z,7.18
2022-09-30T22:04:29.213Z,6.90
2022-09-30T22:07:16.102Z,7.25
2022-09-30T22:10:01.820Z,7.38
2022-09-30T22:12:49.630Z,5.97
2022-09-30T22:15:34.960Z,9.00
2022-09-30T22:18:20.946Z,6.40
2022-09-30T22:21:09.273Z,6.90
2022-09-30T22:23:54.910Z,6.53
2022-09-30T22:26:41.574Z,9.52
2022-09-30T22:29:27.443Z,8.40
2022-09-30T22:32:12.878Z,10.90
2022-09-30T22:35:17.036Z,8.80
2022-09-30T22:38:14.661Z,6.45
2022-09-30T22:41:00.444Z,7.50
2022-09-30T22:43:46.387Z,11.00
2022-09-30T22:46:39.477Z,7.90
2022-09-30T22:49:25.364Z,7.65
2022-09-30T22:52:11.048Z,9.02
2022-09-30T22:54:57.049Z,8.55
2022-09-30T22:57:43.294Z,8.02
2022-09-30T23:00:29.063Z,7.63
2022-09-30T23:03:14.305Z,8.57
2022-09-30T23:06:01.231Z,6.75
2022-09-30T23:08:47.415Z,7.10
2022-09-30T23:11:33.304Z,6.72
2022-09-30T23:14:20.038Z,8.23
2022-09-30T23:17:05.567Z,7.65
2022-09-30T23:19:51.074Z,7.22
2022-09-30T23:22:36.450Z,7.25
2022-09-30T23:25:21.823Z,8.60
2022-09-30T23:28:07.757Z,7.22
2022-09-30T23:30:53.341Z,9.00
2022-09-30T23:33:46.658Z,9.68
2022-09-30T23:36:35.861Z,7.78
2022-09-30T23:39:21.900Z,8.50
2022-09-30T23:42:07.626Z,8.45
2022-09-30T23:44:53.198Z,7.32
2022-09-30T23:47:38.806Z,7.82
2022-09-30T23:50:25.599Z,7.30
2022-09-30T23:53:11.004Z,8.02
2022-09-30T23:55:58.095Z,7.05
2022-09-30T23:58:45.117Z,8.82
